createdAt,value
2019-03-10T00:01:46.072Z,6.40
2019-03-10T00:04:16.243Z,6.43
2019-03-10T00:06:47.156Z,5.90
2019-03-10T00:09:18.903Z,6.13
2019-03-10T00:11:49.079Z,6.00
2019-03-10T00:14:19.241Z,6.47
2019-03-10T00:16:51.033Z,6.67
2019-03-10T00:19:21.492Z,5.90
2019-03-10T00:21:51.648Z,5.70
2019-03-10T00:24:21.824Z,6.00
2019-03-10T00:26:54.346Z,5.73
2019-03-10T00:29:30.900Z,6.00
2019-03-10T00:32:01.357Z,4.77
2019-03-10T00:34:31.521Z,5.20
2019-03-10T00:37:04.743Z,5.80
2019-03-10T00:39:56.971Z,6.07
2019-03-10T00:43:20.858Z,5.73
2019-03-10T00:46:56.106Z,5.13
2019-03-10T00:50:07.432Z,5.47
2019-03-10T00:52:45.350Z,6.00
2019-03-10T00:55:16.787Z,5.20
2019-03-10T00:57:47.872Z,6.30
2019-03-10T01:00:21.806Z,6.13
2019-03-10T01:02:56.566Z,6.80
2019-03-10T01:05:30.994Z,6.77
2019-03-10T01:08:02.138Z,6.20
2019-03-10T01:10:37.483Z,5.27
2019-03-10T01:13:10.580Z,5.93
2019-03-10T01:15:41.361Z,7.07
2019-03-10T01:18:13.777Z,6.53
2019-03-10T01:20:44.646Z,7.00
2019-03-10T01:23:15.569Z,5.87
2019-03-10T01:25:46.724Z,6.90
2019-03-10T01:28:20.089Z,6.03
2019-03-10T01:31:04.289Z,6.87
2019-03-10T01:33:54.169Z,6.53
2019-03-10T01:36:25.644Z,6.00
2019-03-10T01:38:55.815Z,5.43
2019-03-10T01:44:05.659Z,5.60
2019-03-10T01:46:36.160Z,5.47
2019-03-10T01:49:06.359Z,5.30
2019-03-10T01:51:36.525Z,5.53
2019-03-10T01:54:07.020Z,6.10
2019-03-10T01:56:38.137Z,5.43
2019-03-10T01:59:09.956Z,4.80
2019-03-10T02:01:42.413Z,4.80
2019-03-10T02:04:14.229Z,4.93
2019-03-10T02:06:46.266Z,4.97
2019-03-10T02:09:17.108Z,5.40
2019-03-10T02:11:47.646Z,5.43
2019-03-10T02:14:19.911Z,4.60
2019-03-10T02:16:53.869Z,6.20
2019-03-10T02:19:24.066Z,5.20
2019-03-10T02:21:56.517Z,4.87
2019-03-10T02:24:29.195Z,5.30
2019-03-10T02:27:00.961Z,4.77
2019-03-10T02:29:31.613Z,4.63
2019-03-10T02:32:07.984Z,4.63
2019-03-10T02:34:38.422Z,5.33
2019-03-10T02:37:10.043Z,4.67
2019-03-10T02:39:40.217Z,4.50
2019-03-10T02:42:10.727Z,5.50
2019-03-10T02:44:40.922Z,5.17
2019-03-10T02:47:13.635Z,4.80
2019-03-10T02:49:45.423Z,4.87
2019-03-10T02:52:15.593Z,5.83
2019-03-10T02:54:47.133Z,5.53
2019-03-10T02:57:17.747Z,5.57
2019-03-10T02:59:52.292Z,5.13
2019-03-10T03:02:22.702Z,5.27
2019-03-10T03:04:52.898Z,5.73
2019-03-10T03:07:23.468Z,5.60
2019-03-10T03:09:54.679Z,5.13
2019-03-10T03:12:24.837Z,4.63
2019-03-10T03:14:57.858Z,4.63
2019-03-10T03:17:30.819Z,4.30
2019-03-10T03:20:01.712Z,4.60
2019-03-10T03:22:34.812Z,3.63
2019-03-10T03:25:07.297Z,3.23
2019-03-10T03:27:37.450Z,3.00
2019-03-10T03:30:12.954Z,3.53
2019-03-10T03:32:50.754Z,2.90
2019-03-10T03:35:51.983Z,2.87
2019-03-10T03:38:25.619Z,2.80
2019-03-10T03:41:03.134Z,2.93
2019-03-10T03:43:33.684Z,2.70
2019-03-10T03:46:03.865Z,2.50
2019-03-10T03:48:34.038Z,2.57
2019-03-10T03:51:04.518Z,2.90
2019-03-10T03:53:35.962Z,2.50
2019-03-10T03:56:07.453Z,2.63
2019-03-10T03:58:38.452Z,2.60
2019-03-10T04:01:18.303Z,3.30
2019-03-10T04:03:49.220Z,2.83
2019-03-10T04:06:19.397Z,2.93
2019-03-10T04:08:49.904Z,2.87
2019-03-10T04:11:21.127Z,3.23
2019-03-10T04:13:57.357Z,2.67
2019-03-10T04:16:27.881Z,3.20
2019-03-10T04:19:03.088Z,2.57
2019-03-10T04:21:33.246Z,2.97
2019-03-10T04:24:05.416Z,3.07
2019-03-10T04:26:35.571Z,3.60
2019-03-10T04:29:05.714Z,3.37
2019-03-10T04:31:36.725Z,2.67
2019-03-10T04:34:21.673Z,2.70
2019-03-10T04:39:20.784Z,2.67
2019-03-10T04:41:51.826Z,2.60
2019-03-10T04:44:25.735Z,3.30
2019-03-10T04:46:57.295Z,3.00
2019-03-10T04:49:28.458Z,2.70
2019-03-10T04:51:58.965Z,2.63
2019-03-10T04:54:56.746Z,2.33
2019-03-10T04:57:27.527Z,2.27
2019-03-10T04:59:57.691Z,2.97
2019-03-10T05:02:29.525Z,2.20
2019-03-10T05:05:00.505Z,2.47
2019-03-10T05:07:33.034Z,2.27
2019-03-10T05:10:04.823Z,2.33
2019-03-10T05:12:40.618Z,2.70
2019-03-10T05:15:11.206Z,2.37
2019-03-10T05:17:41.403Z,2.43
2019-03-10T05:20:12.006Z,2.60
2019-03-10T05:22:42.574Z,2.73
2019-03-10T05:25:13.187Z,2.57
2019-03-10T05:27:44.188Z,2.57
2019-03-10T05:30:15.111Z,2.20
2019-03-10T05:32:45.310Z,2.03
2019-03-10T05:35:21.215Z,2.43
2019-03-10T05:37:53.819Z,3.07
2019-03-10T05:40:24.705Z,3.03
2019-03-10T05:42:56.553Z,2.93
2019-03-10T05:45:26.717Z,3.40
2019-03-10T05:48:01.258Z,3.20
2019-03-10T05:50:31.411Z,2.77
2019-03-10T05:53:01.369Z,3.17
2019-03-10T05:55:32.330Z,2.43
2019-03-10T05:58:02.771Z,2.80
2019-03-10T06:00:42.602Z,2.40
2019-03-10T06:03:08.394Z,2.37
2019-03-10T06:05:42.891Z,2.97
2019-03-10T06:08:13.056Z,2.57
2019-03-10T06:10:43.623Z,2.20
2019-03-10T06:13:16.090Z,2.37
2019-03-10T06:15:46.241Z,2.53
2019-03-10T06:18:16.402Z,2.40
2019-03-10T06:20:47.943Z,2.47
2019-03-10T06:23:18.831Z,2.30
2019-03-10T06:25:49.108Z,2.50
2019-03-10T06:28:19.257Z,2.17
2019-03-10T06:30:49.842Z,2.40
2019-03-10T06:33:20.457Z,2.40
2019-03-10T06:35:51.584Z,2.80
2019-03-10T06:38:21.716Z,2.23
2019-03-10T06:40:51.968Z,2.33
2019-03-10T06:43:22.523Z,2.60
2019-03-10T06:45:52.688Z,2.60
2019-03-10T06:48:22.858Z,2.80
2019-03-10T06:50:53.036Z,2.70
2019-03-10T06:53:23.204Z,3.20
2019-03-10T06:55:54.507Z,2.97
2019-03-10T06:58:25.447Z,2.20
2019-03-10T07:00:56.170Z,3.17
2019-03-10T07:03:27.871Z,2.30
2019-03-10T07:05:58.058Z,2.57
2019-03-10T07:08:29.902Z,2.87
2019-03-10T07:11:00.753Z,2.47
2019-03-10T07:13:30.905Z,2.43
2019-03-10T07:16:03.158Z,2.40
2019-03-10T07:18:34.481Z,2.83
2019-03-10T07:21:05.083Z,2.70
2019-03-10T07:23:35.246Z,3.20
2019-03-10T07:26:07.633Z,2.73
2019-03-10T07:28:49.760Z,3.10
2019-03-10T07:31:42.409Z,3.60
2019-03-10T07:34:35.595Z,2.93
2019-03-10T07:37:32.783Z,2.80
2019-03-10T07:40:27.773Z,2.80
2019-03-10T07:43:24.757Z,2.90
2019-03-10T07:46:20.225Z,3.40
2019-03-10T07:49:09.183Z,3.30
2019-03-10T07:52:02.786Z,2.90
2019-03-10T07:54:44.888Z,3.83
2019-03-10T07:57:33.442Z,3.43
2019-03-10T08:00:32.469Z,3.63
2019-03-10T08:03:22.004Z,3.80
2019-03-10T08:06:03.318Z,3.77
2019-03-10T08:09:00.417Z,3.70
2019-03-10T08:11:37.179Z,3.70
2019-03-10T08:14:26.663Z,3.83
2019-03-10T08:17:09.994Z,3.90
2019-03-10T08:20:05.811Z,3.70
2019-03-10T08:22:54.367Z,3.37
2019-03-10T08:25:49.778Z,3.50
2019-03-10T08:28:34.001Z,3.43
2019-03-10T08:31:39.032Z,3.83
2019-03-10T08:34:27.496Z,3.60
2019-03-10T08:37:12.227Z,4.00
2019-03-10T08:40:12.667Z,4.20
2019-03-10T08:43:09.405Z,3.80
2019-03-10T08:46:04.632Z,3.20
2019-03-10T08:48:46.520Z,3.30
2019-03-10T08:51:43.369Z,3.27
2019-03-10T08:54:41.932Z,2.70
2019-03-10T08:57:46.252Z,2.50
2019-03-10T09:00:41.696Z,2.10
2019-03-10T09:03:18.767Z,1.50
2019-03-10T09:06:07.113Z,1.40
2019-03-10T09:09:07.688Z,1.07
2019-03-10T09:11:49.250Z,1.23
2019-03-10T09:14:41.041Z,1.10
2019-03-10T09:17:30.546Z,1.20
2019-03-10T09:20:13.145Z,1.30
2019-03-10T09:23:08.971Z,1.23
2019-03-10T09:25:57.581Z,1.27
2019-03-10T09:28:48.053Z,1.20
2019-03-10T09:31:33.971Z,1.33
2019-03-10T09:34:32.313Z,1.23
2019-03-10T09:37:31.065Z,1.43
2019-03-10T09:40:20.280Z,1.10
2019-03-10T09:43:15.692Z,1.20
2019-03-10T09:46:00.877Z,1.40
2019-03-10T09:49:05.248Z,1.20
2019-03-10T09:52:10.500Z,1.20
2019-03-10T09:55:01.078Z,1.23
2019-03-10T09:57:49.704Z,1.50
2019-03-10T10:00:28.891Z,1.83
2019-03-10T10:03:17.376Z,1.40
2019-03-10T10:06:01.100Z,1.30
2019-03-10T10:08:45.114Z,1.50
2019-03-10T10:11:35.018Z,1.50
2019-03-10T10:14:24.908Z,1.60
2019-03-10T10:17:21.181Z,1.50
2019-03-10T10:20:07.491Z,1.70
2019-03-10T10:22:56.820Z,2.43
2019-03-10T10:25:33.604Z,1.60
2019-03-10T10:28:21.947Z,2.23
2019-03-10T10:30:59.973Z,1.93
2019-03-10T10:33:50.303Z,1.90
2019-03-10T10:36:43.003Z,2.17
2019-03-10T10:39:30.532Z,2.10
2019-03-10T10:42:39.720Z,1.90
2019-03-10T10:45:36.440Z,2.50
2019-03-10T10:48:27.531Z,2.47
2019-03-10T10:51:17.744Z,1.90
2019-03-10T10:54:07.878Z,2.00
2019-03-10T10:56:56.094Z,2.00
2019-03-10T10:59:33.276Z,2.60
2019-03-10T11:02:12.730Z,2.40
2019-03-10T11:05:01.800Z,2.47
2019-03-10T11:07:58.139Z,2.07
2019-03-10T11:10:41.638Z,2.50
2019-03-10T11:13:21.373Z,2.53
2019-03-10T11:16:07.241Z,2.50
2019-03-10T11:19:05.999Z,2.50
2019-03-10T11:21:54.272Z,3.30
2019-03-10T11:24:41.197Z,2.60
2019-03-10T11:27:16.660Z,2.80
2019-03-10T11:29:55.844Z,3.27
2019-03-10T11:32:43.365Z,3.00
2019-03-10T11:35:44.734Z,2.60
2019-03-10T11:38:40.014Z,2.57
2019-03-10T11:41:47.954Z,2.53
2019-03-10T11:44:44.878Z,2.60
2019-03-10T11:47:30.002Z,2.90
2019-03-10T11:50:31.221Z,3.47
2019-03-10T11:53:35.517Z,2.63
2019-03-10T11:56:25.088Z,3.30
2019-03-10T11:59:13.707Z,2.70
2019-03-10T12:01:58.284Z,2.87
2019-03-10T12:04:46.518Z,3.30
2019-03-10T12:07:33.733Z,3.00
2019-03-10T12:10:05.249Z,2.80
2019-03-10T12:12:35.731Z,3.00
2019-03-10T12:15:08.527Z,2.80
2019-03-10T12:17:42.662Z,3.00
2019-03-10T12:20:12.997Z,3.00
2019-03-10T12:22:43.142Z,2.90
2019-03-10T12:25:13.954Z,3.57
2019-03-10T12:27:44.580Z,3.47
2019-03-10T12:30:16.221Z,3.00
2019-03-10T12:32:47.477Z,3.47
2019-03-10T12:35:18.055Z,3.90
2019-03-10T12:37:48.761Z,3.03
2019-03-10T12:40:19.412Z,3.40
2019-03-10T12:42:50.872Z,3.37
2019-03-10T12:45:26.137Z,2.93
2019-03-10T12:47:56.288Z,2.77
2019-03-10T12:50:27.730Z,3.03
2019-03-10T12:52:57.901Z,2.60
2019-03-10T12:55:28.426Z,2.80
2019-03-10T12:57:58.585Z,2.23
2019-03-10T13:00:34.135Z,2.60
2019-03-10T13:03:06.770Z,2.30
2019-03-10T13:05:42.871Z,2.83
2019-03-10T13:08:13.706Z,2.60
2019-03-10T13:10:44.301Z,3.07
2019-03-10T13:13:15.959Z,3.00
2019-03-10T13:15:53.417Z,2.83
2019-03-10T13:18:24.311Z,2.80
2019-03-10T13:20:57.170Z,3.13
2019-03-10T13:23:30.184Z,2.87
2019-03-10T13:26:00.383Z,2.90
2019-03-10T13:28:30.607Z,2.97
2019-03-10T13:33:38.301Z,2.43
2019-03-10T13:36:10.234Z,2.43
2019-03-10T13:38:41.050Z,2.60
2019-03-10T13:41:13.178Z,2.03
2019-03-10T13:43:43.369Z,2.13
2019-03-10T13:46:16.557Z,2.53
2019-03-10T13:48:47.094Z,2.70
2019-03-10T13:51:17.294Z,2.67
2019-03-10T13:53:48.018Z,2.00
2019-03-10T13:56:20.178Z,2.37
2019-03-10T13:58:53.046Z,2.17
2019-03-10T14:01:25.347Z,1.70
2019-03-10T14:03:56.014Z,1.20
2019-03-10T14:06:28.897Z,1.10
2019-03-10T14:09:01.002Z,1.20
2019-03-10T14:11:32.857Z,1.00
2019-03-10T14:14:04.377Z,1.13
2019-03-10T14:16:35.487Z,1.00
2019-03-10T14:19:06.919Z,0.80
2019-03-10T14:21:38.704Z,0.63
2019-03-10T14:24:09.215Z,0.73
2019-03-10T14:26:43.830Z,1.07
2019-03-10T14:29:16.629Z,0.80
2019-03-10T14:31:46.813Z,0.87
2019-03-10T14:34:16.997Z,0.97
2019-03-10T14:36:47.177Z,0.93
2019-03-10T14:39:19.071Z,0.80
2019-03-10T14:41:51.721Z,1.30
2019-03-10T14:44:21.895Z,1.00
2019-03-10T14:46:53.736Z,1.03
2019-03-10T14:49:23.913Z,0.87
2019-03-10T14:51:55.981Z,0.77
2019-03-10T14:54:26.960Z,0.97
2019-03-10T14:56:57.202Z,0.73
2019-03-10T14:59:27.384Z,0.80
2019-03-10T15:02:03.023Z,0.80
2019-03-10T15:04:36.709Z,0.90
2019-03-10T15:07:06.870Z,0.87
2019-03-10T15:09:37.361Z,1.20
2019-03-10T15:12:09.900Z,1.10
2019-03-10T15:14:40.077Z,1.03
2019-03-10T15:17:11.477Z,1.00
2019-03-10T15:19:42.091Z,1.47
2019-03-10T15:22:12.219Z,1.10
2019-03-10T15:24:42.414Z,1.10
2019-03-10T15:27:22.827Z,1.40
2019-03-10T15:29:44.433Z,1.13
2019-03-10T15:32:15.973Z,1.00
2019-03-10T15:34:47.723Z,1.13
2019-03-10T15:37:17.872Z,1.40
2019-03-10T15:39:48.071Z,0.90
2019-03-10T15:42:18.548Z,1.20
2019-03-10T15:44:48.824Z,0.90
2019-03-10T15:47:21.277Z,0.93
2019-03-10T15:49:51.966Z,1.47
2019-03-10T15:52:22.127Z,0.90
2019-03-10T15:54:52.269Z,0.87
2019-03-10T15:57:22.434Z,1.10
2019-03-10T15:59:53.032Z,0.70
2019-03-10T16:02:23.846Z,0.70
2019-03-10T16:04:55.841Z,1.03
2019-03-10T16:07:26.083Z,0.80
2019-03-10T16:09:56.298Z,1.00
2019-03-10T16:12:26.511Z,0.90
2019-03-10T16:14:57.094Z,1.17
2019-03-10T16:17:27.287Z,1.13
2019-03-10T16:19:57.460Z,0.97
2019-03-10T16:22:27.632Z,1.20
2019-03-10T16:24:57.930Z,1.30
2019-03-10T16:27:28.565Z,1.20
2019-03-10T16:29:58.713Z,1.40
2019-03-10T16:32:28.910Z,1.60
2019-03-10T16:34:59.069Z,1.30
2019-03-10T16:37:29.249Z,1.37
2019-03-10T16:39:59.673Z,1.20
2019-03-10T16:42:30.421Z,1.10
2019-03-10T16:45:00.577Z,1.40
2019-03-10T16:47:32.211Z,1.47
2019-03-10T16:50:02.377Z,1.57
2019-03-10T16:52:35.195Z,1.33
2019-03-10T16:55:06.963Z,1.40
2019-03-10T16:57:37.605Z,1.10
2019-03-10T17:00:08.939Z,1.17
2019-03-10T17:02:39.961Z,1.00
2019-03-10T17:05:12.411Z,1.00
2019-03-10T17:07:42.884Z,1.97
2019-03-10T17:10:14.366Z,1.63
2019-03-10T17:12:44.526Z,1.10
2019-03-10T17:15:16.206Z,1.10
2019-03-10T17:17:46.857Z,1.20
2019-03-10T17:20:17.598Z,1.23
2019-03-10T17:22:48.544Z,1.20
2019-03-10T17:25:19.986Z,1.23
2019-03-10T17:27:50.903Z,1.20
2019-03-10T17:30:23.414Z,1.50
2019-03-10T17:33:02.827Z,1.17
2019-03-10T17:35:37.251Z,1.20
2019-03-10T17:38:07.573Z,1.33
2019-03-10T17:40:40.429Z,1.20
2019-03-10T17:43:10.797Z,1.33
2019-03-10T17:45:41.678Z,1.20
2019-03-10T17:48:13.586Z,1.30
2019-03-10T17:50:46.119Z,1.13
2019-03-10T17:53:16.733Z,1.47
2019-03-10T17:55:47.404Z,1.60
2019-03-10T17:58:20.942Z,1.27
2019-03-10T18:00:52.868Z,1.40
2019-03-10T18:03:23.755Z,1.30
2019-03-10T18:05:54.495Z,1.50
2019-03-10T18:08:25.060Z,1.10
2019-03-10T18:10:55.653Z,1.23
2019-03-10T18:13:26.222Z,1.33
2019-03-10T18:15:56.811Z,1.70
2019-03-10T18:18:27.054Z,1.40
2019-03-10T18:20:58.284Z,1.67
2019-03-10T18:23:29.352Z,1.30
2019-03-10T18:25:59.891Z,1.40
2019-03-10T18:28:30.637Z,1.50
2019-03-10T18:31:03.380Z,1.33
2019-03-10T18:33:34.899Z,1.63
2019-03-10T18:36:05.060Z,1.50
2019-03-10T18:38:35.239Z,1.50
2019-03-10T18:41:05.610Z,1.50
2019-03-10T18:43:36.234Z,1.57
2019-03-10T18:46:06.386Z,1.20
2019-03-10T18:48:39.791Z,1.67
2019-03-10T18:51:09.942Z,1.53
2019-03-10T18:53:40.100Z,1.50
2019-03-10T18:56:12.440Z,1.33
2019-03-10T18:58:42.591Z,1.50
2019-03-10T19:01:12.839Z,1.53
2019-03-10T19:03:43.817Z,1.47
2019-03-10T19:06:15.664Z,1.60
2019-03-10T19:08:45.832Z,1.60
2019-03-10T19:11:16.697Z,1.50
2019-03-10T19:13:46.850Z,1.90
2019-03-10T19:16:18.180Z,1.80
2019-03-10T19:18:48.335Z,1.77
2019-03-10T19:21:18.521Z,1.63
2019-03-10T19:23:49.108Z,1.83
2019-03-10T19:26:19.697Z,1.50
2019-03-10T19:28:49.871Z,1.60
2019-03-10T19:31:20.038Z,2.20
2019-03-10T19:33:50.238Z,1.73
2019-03-10T19:36:20.747Z,1.73
2019-03-10T19:38:51.326Z,1.90
2019-03-10T19:41:23.835Z,1.60
2019-03-10T19:43:54.019Z,1.70
2019-03-10T19:46:24.301Z,1.93
2019-03-10T19:48:56.180Z,1.97
2019-03-10T19:51:32.773Z,1.60
2019-03-10T19:54:04.576Z,1.47
2019-03-10T19:56:34.854Z,1.67
2019-03-10T19:59:06.018Z,1.50
2019-03-10T20:01:36.735Z,1.70
2019-03-10T20:04:07.106Z,1.90
2019-03-10T20:06:37.280Z,1.80
2019-03-10T20:09:08.021Z,2.00
2019-03-10T20:11:39.500Z,2.07
2019-03-10T20:14:11.195Z,1.90
2019-03-10T20:16:41.371Z,1.97
2019-03-10T20:19:11.907Z,2.10
2019-03-10T20:21:42.058Z,1.90
2019-03-10T20:24:12.222Z,1.90
2019-03-10T20:26:42.418Z,2.40
2019-03-10T20:29:13.291Z,1.80
2019-03-10T20:31:43.542Z,1.40
2019-03-10T20:34:34.109Z,1.13
2019-03-10T20:37:04.585Z,1.37
2019-03-10T20:39:36.243Z,1.53
2019-03-10T20:42:06.610Z,1.10
2019-03-10T20:44:37.258Z,1.23
2019-03-10T20:47:07.997Z,1.23
2019-03-10T20:49:41.001Z,1.30
2019-03-10T20:52:11.175Z,1.30
2019-03-10T20:54:41.357Z,1.27
2019-03-10T20:57:12.093Z,1.10
2019-03-10T20:59:43.364Z,1.40
2019-03-10T21:02:13.656Z,1.30
2019-03-10T21:04:43.811Z,1.17
2019-03-10T21:07:14.525Z,2.00
2019-03-10T21:09:44.703Z,1.67
2019-03-10T21:12:15.028Z,1.47
2019-03-10T21:14:45.225Z,1.37
2019-03-10T21:17:16.000Z,1.47
2019-03-10T21:19:46.530Z,1.83
2019-03-10T21:22:21.007Z,1.77
2019-03-10T21:24:56.510Z,1.90
2019-03-10T21:27:27.576Z,2.10
2019-03-10T21:30:02.979Z,2.10
2019-03-10T21:32:38.187Z,2.07
2019-03-10T21:35:17.199Z,2.17
2019-03-10T21:37:41.703Z,2.10
2019-03-10T21:40:13.304Z,2.27
2019-03-10T21:42:44.420Z,2.40
2019-03-10T21:45:14.571Z,2.30
2019-03-10T21:47:44.741Z,2.17
2019-03-10T21:50:15.786Z,2.10
2019-03-10T21:52:46.589Z,2.20
2019-03-10T21:55:17.946Z,2.53
2019-03-10T21:57:49.366Z,2.77
2019-03-10T22:00:21.764Z,2.90
2019-03-10T22:03:02.449Z,2.40
2019-03-10T22:06:35.955Z,2.33
2019-03-10T22:10:27.673Z,2.60
2019-03-10T22:12:57.581Z,2.17
2019-03-10T22:15:28.321Z,2.47
2019-03-10T22:17:58.526Z,2.40
2019-03-10T22:20:28.749Z,2.67
2019-03-10T22:23:59.637Z,3.60
2019-03-10T22:42:08.760Z,2.50
2019-03-10T22:44:39.173Z,3.20
2019-03-10T22:47:09.335Z,2.50
2019-03-10T22:49:39.483Z,2.77
2019-03-10T22:52:11.820Z,2.40
2019-03-10T22:54:41.983Z,2.63
2019-03-10T22:57:12.510Z,3.20
2019-03-10T22:59:45.287Z,2.63
2019-03-10T23:02:15.999Z,3.10
2019-03-10T23:04:47.376Z,2.43
2019-03-10T23:07:18.692Z,2.50
2019-03-10T23:09:49.323Z,2.60
2019-03-10T23:12:20.165Z,2.73
2019-03-10T23:14:50.773Z,2.53
2019-03-10T23:17:21.380Z,2.03
2019-03-10T23:19:51.532Z,2.47
2019-03-10T23:22:21.707Z,2.40
2019-03-10T23:24:52.296Z,2.50
2019-03-10T23:27:22.581Z,2.40
2019-03-10T23:29:52.893Z,2.63
2019-03-10T23:32:24.604Z,2.37
2019-03-10T23:34:55.323Z,2.30
2019-03-10T23:37:25.500Z,2.50
2019-03-10T23:39:55.648Z,2.60
2019-03-10T23:42:25.886Z,3.37
2019-03-10T23:44:56.639Z,2.90
2019-03-10T23:47:27.213Z,2.90
2019-03-10T23:49:57.380Z,3.10
2019-03-10T23:52:28.197Z,2.67
2019-03-10T23:54:58.877Z,2.53
2019-03-10T23:57:31.183Z,3.63
